Irvine, KY (40336)

3:51 AM EDT on July 28, 2016 (GMT -0400)
Irvine, Ky. | | Change Station
Active Advisory: Flash Flood Watch

Elev 719 ft 37.69 °N, 83.96 °W | Updated 6 seconds ago

Light Rain
Light Rain
72.9 °F
Feels Like 72.9 °F
N
1.0
Wind Variable Wind from East
Gusts 1.0 mph

Today
High -- | Low -- °F
--% Chance of Precip.
Yesterday
High -- | Low -- °F
Precip. -- in
Pressure 29.96 in
Visibility 10.0 miles
Clouds Scattered Clouds 7000 ft
Scattered Clouds 12000 ft
Dew Point 71 °F
Humidity 94%
Rainfall 0.01 in
Snow Depth Not available.
6:36 AM 8:47 PM
Waning Crescent, 34% visible
METAR KIOB 280735Z AUTO 21005KT 10SM -RA SCT070 SCT120 22/21 A2996 RMK AO2
Pressure 29.96 in
Visibility 10.0 miles
Clouds Scattered Clouds 7000 ft
Scattered Clouds 12000 ft
Dew Point 71 °F
Humidity 94%
Rainfall 0.01 in
Snow Depth Not available.
6:36 AM 8:47 PM
Waning Crescent, 34% visible
METAR KIOB 280735Z AUTO 21005KT 10SM -RA SCT070 SCT120 22/21 A2996 RMK AO2

10-Day Weather Forecast

Almanac

Astronomy

Jul. 28, 2016 Rise Set
Actual Time
Civil Twilight
Nautical Twilight
Astronomical Twilight
Moon
Length of Visible Light
Length of Day
Tomorrow will be .
, % of the Moon is Illuminated

Today's Extremes

State Highs State Lows

Community

WunderPhotos

Upload Photos

1,928,070 photos uploaded!

WunderBlog® & News

Nearby

Air Quality

  Air Quality AQ Index Pollutant
Not available.

Snow Depth

Station Depth Elevation

Earthquake Activity

City Distance Mag. Time & Date
Minimum magnitude displayed is 2.5.

Coastal Water Temperatures

Place Temperature

Stations

Nearby Weather Stations

Station Location Temp. Windchill Dew Point Humidity Wind Precip. Elev Updated Type
                   

Watches & Warnings

Flash Flood Watch
Issued: 10:28 PM EDT Jul. 27, 2016 – National Weather Service

... Flash Flood Watch now in effect through early Friday
morning...

A Flash Flood Watch is now in effect for

* the following Kentucky counties. Bath... Elliott...
Estill... Fleming... Menifee... Montgomery... Powell... Rowan...
Johnson... Martin... Laurel... McCreary... Pulaski... Rockcastle...
Wayne... Whitley... Bell... Breathitt... Clay... Floyd... Harlan...
Jackson... Knott... Knox... Lee... Leslie... Letcher... Magoffin...
Morgan... Owsley... Perry... Pike... and Wolfe.

* It is valid through early Friday morning.

* Repeated rounds of thunderstorms area expected in a very moist
atmosphere. This will bring a threat for heavy rainfall... which
could result in flash flooding along creeks and small streams,
or in poor drainage areas.

Precautionary/preparedness actions...

A Flash Flood Watch means that conditions may develop that lead
to flash flooding. Flash flooding is a very dangerous situation.

You should monitor later forecasts and be prepared to take action
should flash flood warnings be issued.



Hal